Phinizy, Georgia
Current Conditions -  °F | °C
As of 3:35 PM on Friday 21 Nov 2014 (Local Time) from KHQU Reporting Station
Clear Clear  
Wind Chill: 66°   Ceiling: Unl
Heat Index: 66°   Visibility: 10mi
Dew Point: 36°   Wind: 5mph
Humidity: 33%   Direction: 20°NNE
Pressure: 30.39"   Gusts: NA
Location:  33.6237°N, 82.2874°W
Report Text: KHQU 212035Z AUTO 02004KT 10SM CLR 19/02 A3039 RMK AO1 T01900024
Loading
Personal Weather Stations






























Interactive Weather Map New forecast layout! Learn more

10-Day Weather Forecast

Advertisements
Track Severe Weather on mobile